Time,TemperatureF,DewpointF,PressureIn,WindDirection,WindDirectionDegrees,WindSpeedMPH,WindSpeedGustMPH,Humidity,HourlyPrecipIn,Conditions,Clouds,dailyrainin,SoftwareType,DateUTC
2013-09-24 00:05:00,53.5,51.5,30.07,ENE,69,0.0,0.0,93,0.00,,,0.00,Wunderground v.1.15,2013-09-24 04:05:00,
2013-09-24 00:10:00,53.4,51.4,30.07,ENE,69,0.0,0.0,93,0.00,,,0.00,Wunderground v.1.15,2013-09-24 04:10:00,
2013-09-24 00:15:00,53.4,51.4,30.07,ENE,69,0.0,0.0,93,0.00,,,0.00,Wunderground v.1.15,2013-09-24 04:15:00,
2013-09-24 00:20:00,53.3,51.3,30.07,ENE,69,0.0,0.0,93,0.00,,,0.00,Wunderground v.1.15,2013-09-24 04:20:00,
2013-09-24 00:25:00,53.2,51.2,30.07,ENE,69,0.0,0.0,93,0.00,,,0.00,Wunderground v.1.15,2013-09-24 04:25:00,
2013-09-24 00:35:00,52.9,50.9,30.07,ENE,69,0.0,0.0,93,0.00,,,0.00,Wunderground v.1.15,2013-09-24 04:35:00,
2013-09-24 00:45:00,52.7,51.0,30.07,ENE,69,0.0,0.0,94,0.00,,,0.00,Wunderground v.1.15,2013-09-24 04:45:00,
2013-09-24 00:50:00,52.7,51.0,30.07,ENE,69,0.0,0.0,94,0.00,,,0.00,Wunderground v.1.15,2013-09-24 04:50:00,
2013-09-24 01:00:00,52.4,50.7,30.07,ENE,69,0.0,0.0,94,0.00,,,0.00,Wunderground v.1.15,2013-09-24 05:00:00,
2013-09-24 01:10:00,52.3,50.6,30.07,ENE,69,0.0,0.0,94,0.00,,,0.00,Wunderground v.1.15,2013-09-24 05:10:00,
2013-09-24 01:15:00,52.2,50.5,30.07,ENE,69,0.0,0.0,94,0.00,,,0.00,Wunderground v.1.15,2013-09-24 05:15:00,
2013-09-24 01:25:00,52.0,50.3,30.07,ENE,69,0.0,0.0,94,0.00,,,0.00,Wunderground v.1.15,2013-09-24 05:25:00,
2013-09-24 01:35:00,51.9,50.2,30.08,ENE,69,0.0,0.0,94,0.00,,,0.00,Wunderground v.1.15,2013-09-24 05:35:00,
2013-09-24 01:45:00,51.8,50.1,30.08,ENE,69,0.0,0.0,94,0.00,,,0.00,Wunderground v.1.15,2013-09-24 05:45:00,
2013-09-24 01:55:00,51.7,50.0,30.08,ENE,69,0.0,0.0,94,0.00,,,0.00,Wunderground v.1.15,2013-09-24 05:55:00,
2013-09-24 02:05:00,51.6,49.9,30.08,ENE,69,0.0,0.0,94,0.00,,,0.00,Wunderground v.1.15,2013-09-24 06:05:00,
2013-09-24 02:15:00,51.5,50.1,30.07,ENE,69,0.0,0.0,95,0.00,,,0.00,Wunderground v.1.15,2013-09-24 06:15:00,
2013-09-24 02:25:00,51.6,50.2,30.07,ENE,69,0.0,0.0,95,0.00,,,0.00,Wunderground v.1.15,2013-09-24 06:25:00,
2013-09-24 02:35:00,51.4,50.0,30.07,ENE,69,0.0,0.0,95,0.00,,,0.00,Wunderground v.1.15,2013-09-24 06:35:00,
2013-09-24 02:45:00,51.2,49.8,30.07,ENE,69,0.0,0.0,95,0.00,,,0.00,Wunderground v.1.15,2013-09-24 06:45:00,
2013-09-24 02:55:00,51.1,49.7,30.07,ENE,69,0.0,0.0,95,0.00,,,0.00,Wunderground v.1.15,2013-09-24 06:55:00,
2013-09-24 03:05:00,51.1,49.7,30.07,ENE,69,0.0,0.0,95,0.00,,,0.00,Wunderground v.1.15,2013-09-24 07:05:00,
2013-09-24 03:10:00,51.0,49.6,30.07,ENE,69,0.0,0.0,95,0.00,,,0.00,Wunderground v.1.15,2013-09-24 07:10:00,
2013-09-24 03:20:00,50.9,49.5,30.07,ENE,69,0.0,0.0,95,0.00,,,0.00,Wunderground v.1.15,2013-09-24 07:20:00,
2013-09-24 03:30:00,50.8,49.4,30.07,ENE,69,0.0,0.0,95,0.00,,,0.00,Wunderground v.1.15,2013-09-24 07:30:00,
2013-09-24 03:40:00,50.7,49.3,30.07,ENE,69,0.0,0.0,95,0.00,,,0.00,Wunderground v.1.15,2013-09-24 07:40:00,
2013-09-24 03:50:00,50.5,49.1,30.07,ENE,69,0.0,0.0,95,0.00,,,0.00,Wunderground v.1.15,2013-09-24 07:50:00,
2013-09-24 04:00:00,50.2,48.8,30.07,ENE,69,0.0,0.0,95,0.00,,,0.00,Wunderground v.1.15,2013-09-24 08:00:00,
2013-09-24 04:05:00,50.1,48.7,30.07,ENE,69,0.0,0.0,95,0.00,,,0.00,Wunderground v.1.15,2013-09-24 08:05:00,
2013-09-24 04:15:00,49.9,48.5,30.06,ENE,69,0.0,0.0,95,0.00,,,0.00,Wunderground v.1.15,2013-09-24 08:15:00,
2013-09-24 04:25:00,49.7,48.6,30.07,ENE,69,0.0,0.0,96,0.00,,,0.00,Wunderground v.1.15,2013-09-24 08:25:00,
2013-09-24 04:35:00,49.6,48.2,30.07,ENE,69,0.0,0.0,95,0.00,,,0.00,Wunderground v.1.15,2013-09-24 08:35:00,
2013-09-24 04:45:00,49.5,48.4,30.07,ENE,69,0.0,0.0,96,0.00,,,0.00,Wunderground v.1.15,2013-09-24 08:45:00,
2013-09-24 04:50:00,49.6,48.5,30.07,ENE,69,0.0,0.0,96,0.00,,,0.00,Wunderground v.1.15,2013-09-24 08:50:00,
2013-09-24 05:00:00,49.7,48.6,30.07,ENE,69,0.0,0.0,96,0.00,,,0.00,Wunderground v.1.15,2013-09-24 09:00:00,
2013-09-24 05:05:00,49.7,48.6,30.07,ENE,69,0.0,0.0,96,0.00,,,0.00,Wunderground v.1.15,2013-09-24 09:05:00,
2013-09-24 05:15:00,49.4,48.3,30.07,ENE,69,0.0,0.0,96,0.00,,,0.00,Wunderground v.1.15,2013-09-24 09:15:00,
2013-09-24 05:25:00,49.3,48.2,30.07,ENE,69,0.0,0.0,96,0.00,,,0.00,Wunderground v.1.15,2013-09-24 09:25:00,
2013-09-24 05:30:00,49.4,48.3,30.07,ENE,69,0.0,0.0,96,0.00,,,0.00,Wunderground v.1.15,2013-09-24 09:30:00,
2013-09-24 05:40:00,49.3,48.2,30.08,ENE,69,0.0,0.0,96,0.00,,,0.00,Wunderground v.1.15,2013-09-24 09:40:00,
2013-09-24 05:50:00,49.2,48.1,30.07,ENE,69,0.0,0.0,96,0.00,,,0.00,Wunderground v.1.15,2013-09-24 09:50:00,
2013-09-24 06:00:00,49.1,48.0,30.07,ENE,69,0.0,0.0,96,0.00,,,0.00,Wunderground v.1.15,2013-09-24 10:00:00,
2013-09-24 06:10:00,49.2,48.1,30.07,ENE,69,0.0,0.0,96,0.00,,,0.00,Wunderground v.1.15,2013-09-24 10:10:00,
2013-09-24 06:20:00,49.2,48.1,30.07,ENE,69,0.0,0.0,96,0.00,,,0.00,Wunderground v.1.15,2013-09-24 10:20:00,
2013-09-24 06:30:00,49.2,48.1,30.07,ENE,69,0.0,0.0,96,0.00,,,0.00,Wunderground v.1.15,2013-09-24 10:30:00,
2013-09-24 06:35:00,49.3,48.2,30.07,ENE,69,0.0,0.0,96,0.00,,,0.00,Wunderground v.1.15,2013-09-24 10:35:00,
2013-09-24 06:45:00,49.4,48.3,30.07,ENE,69,0.0,0.0,96,0.00,,,0.00,Wunderground v.1.15,2013-09-24 10:45:00,
2013-09-24 06:55:00,49.2,48.1,30.08,ENE,69,0.0,0.0,96,0.00,,,0.00,Wunderground v.1.15,2013-09-24 10:55:00,
2013-09-24 07:00:00,49.2,48.1,30.08,ENE,69,0.0,0.0,96,0.00,,,0.00,Wunderground v.1.15,2013-09-24 11:00:00,
2013-09-24 07:10:00,49.4,48.3,30.08,ENE,69,0.0,0.0,96,0.00,,,0.00,Wunderground v.1.15,2013-09-24 11:10:00,
2013-09-24 07:20:00,49.5,48.4,30.08,ENE,69,0.0,0.0,96,0.00,,,0.00,Wunderground v.1.15,2013-09-24 11:20:00,
2013-09-24 07:30:00,49.8,48.7,30.08,ENE,69,0.0,0.0,96,0.00,,,0.00,Wunderground v.1.15,2013-09-24 11:30:00,
2013-09-24 07:35:00,50.3,49.5,30.08,ENE,69,0.0,0.0,97,0.00,,,0.00,Wunderground v.1.15,2013-09-24 11:35:00,
2013-09-24 07:45:00,51.6,50.8,30.08,ENE,68,0.0,0.0,97,0.00,,,0.00,Wunderground v.1.15,2013-09-24 11:45:00,
2013-09-24 07:55:00,52.9,52.1,30.08,ENE,69,0.0,0.0,97,0.00,,,0.00,Wunderground v.1.15,2013-09-24 11:55:00,
2013-09-24 08:05:00,53.8,53.0,30.08,NNE,28,0.0,0.0,97,0.00,,,0.00,Wunderground v.1.15,2013-09-24 12:05:00,
2013-09-24 08:15:00,54.6,53.8,30.08,North,355,0.0,0.0,97,0.00,,,0.00,Wunderground v.1.15,2013-09-24 12:15:00,
2013-09-24 08:25:00,55.7,54.9,30.08,NNW,348,0.0,0.0,97,0.00,,,0.00,Wunderground v.1.15,2013-09-24 12:25:00,
2013-09-24 08:35:00,57.1,56.0,30.09,NNW,348,0.0,0.0,96,0.00,,,0.00,Wunderground v.1.15,2013-09-24 12:35:00,
2013-09-24 08:45:00,58.3,56.6,30.08,NNW,346,0.0,0.0,94,0.00,,,0.00,Wunderground v.1.15,2013-09-24 12:45:00,
2013-09-24 08:55:00,59.1,56.5,30.08,NNW,342,0.0,0.0,91,0.00,,,0.00,Wunderground v.1.15,2013-09-24 12:55:00,
2013-09-24 09:00:00,59.7,56.5,30.08,NW,321,0.0,0.0,89,0.00,,,0.00,Wunderground v.1.15,2013-09-24 13:00:00,
2013-09-24 09:10:00,61.1,57.2,30.08,NW,320,0.0,0.0,87,0.00,,,0.00,Wunderground v.1.15,2013-09-24 13:10:00,
2013-09-24 09:20:00,62.1,56.9,30.08,NW,317,0.0,0.0,83,0.00,,,0.00,Wunderground v.1.15,2013-09-24 13:20:00,
2013-09-24 09:30:00,63.1,57.2,30.09,WNW,288,0.0,0.0,81,0.00,,,0.00,Wunderground v.1.15,2013-09-24 13:30:00,
2013-09-24 09:35:00,64.0,57.4,30.08,WNW,289,0.0,0.0,79,0.00,,,0.00,Wunderground v.1.15,2013-09-24 13:35:00,
2013-09-24 09:45:00,64.6,57.6,30.08,WNW,288,0.0,0.0,78,0.00,,,0.00,Wunderground v.1.15,2013-09-24 13:45:00,
2013-09-24 09:55:00,65.4,57.3,30.08,WNW,292,0.0,0.0,75,0.00,,,0.00,Wunderground v.1.15,2013-09-24 13:55:00,
2013-09-24 10:05:00,66.1,58.3,30.08,WNW,294,0.0,0.0,76,0.00,,,0.00,Wunderground v.1.15,2013-09-24 14:05:00,
2013-09-24 10:10:00,66.7,57.4,30.08,WNW,300,0.0,0.0,72,0.00,,,0.00,Wunderground v.1.15,2013-09-24 14:10:00,
2013-09-24 10:20:00,68.2,57.2,30.08,WNW,299,0.0,0.0,68,0.00,,,0.00,Wunderground v.1.15,2013-09-24 14:20:00,
2013-09-24 10:25:00,68.4,56.6,30.08,WNW,299,0.0,0.0,66,0.00,,,0.00,Wunderground v.1.15,2013-09-24 14:25:00,
2013-09-24 10:30:00,68.0,55.8,30.08,NNW,347,0.0,0.0,65,0.00,,,0.00,Wunderground v.1.15,2013-09-24 14:30:00,
2013-09-24 10:40:00,69.0,55.9,30.08,North,355,0.0,0.0,63,0.00,,,0.00,Wunderground v.1.15,2013-09-24 14:40:00,
2013-09-24 10:50:00,68.3,54.8,30.08,NNE,15,0.0,0.0,62,0.00,,,0.00,Wunderground v.1.15,2013-09-24 14:50:00,
2013-09-24 11:00:00,68.6,55.9,30.08,North,355,0.0,0.0,64,0.00,,,0.00,Wunderground v.1.15,2013-09-24 15:00:00,
2013-09-24 11:10:00,70.1,56.0,30.08,North,355,0.0,0.0,61,0.00,,,0.00,Wunderground v.1.15,2013-09-24 15:10:00,
2013-09-24 11:20:00,70.9,55.9,30.08,North,11,0.0,0.0,59,0.00,,,0.00,Wunderground v.1.15,2013-09-24 15:20:00,
2013-09-24 11:25:00,70.0,54.1,30.07,NNE,33,0.0,0.0,57,0.00,,,0.00,Wunderground v.1.15,2013-09-24 15:25:00,
2013-09-24 11:35:00,69.3,54.8,30.07,North,5,0.0,0.0,60,0.00,,,0.00,Wunderground v.1.15,2013-09-24 15:35:00,
2013-09-24 11:45:00,70.8,55.8,30.07,WNW,290,0.0,0.0,59,0.00,,,0.00,Wunderground v.1.15,2013-09-24 15:45:00,
2013-09-24 11:55:00,71.6,55.1,30.06,North,355,0.0,0.0,56,0.00,,,0.00,Wunderground v.1.15,2013-09-24 15:55:00,
2013-09-24 12:05:00,72.1,56.0,30.06,NNW,346,0.0,0.0,57,0.00,,,0.00,Wunderground v.1.15,2013-09-24 16:05:00,
2013-09-24 12:10:00,72.2,56.1,30.06,North,360,0.0,0.0,57,0.00,,,0.00,Wunderground v.1.15,2013-09-24 16:10:00,
2013-09-24 12:20:00,71.8,55.7,30.05,North,355,0.0,0.0,57,0.00,,,0.00,Wunderground v.1.15,2013-09-24 16:20:00,
2013-09-24 12:30:00,71.7,55.2,30.05,ENE,60,0.0,0.0,56,0.00,,,0.00,Wunderground v.1.15,2013-09-24 16:30:00,
2013-09-24 12:35:00,71.6,57.4,30.05,NNW,348,0.0,0.0,61,0.00,,,0.00,Wunderground v.1.15,2013-09-24 16:35:00,
2013-09-24 12:45:00,72.6,55.0,30.04,WSW,257,0.0,0.0,54,0.00,,,0.00,Wunderground v.1.15,2013-09-24 16:45:00,
2013-09-24 12:55:00,72.2,56.1,30.04,North,10,1.0,1.0,57,0.00,,,0.00,Wunderground v.1.15,2013-09-24 16:55:00,
2013-09-24 13:05:00,72.5,56.4,30.03,NW,304,0.0,0.0,57,0.00,,,0.00,Wunderground v.1.15,2013-09-24 17:05:00,
2013-09-24 13:15:00,73.2,55.6,30.03,NW,309,0.0,0.0,54,0.00,,,0.00,Wunderground v.1.15,2013-09-24 17:15:00,
2013-09-24 13:25:00,73.8,56.1,30.02,WNW,289,0.0,0.0,54,0.00,,,0.00,Wunderground v.1.15,2013-09-24 17:25:00,
2013-09-24 13:35:00,73.0,56.9,30.02,NW,306,0.0,0.0,57,0.00,,,0.00,Wunderground v.1.15,2013-09-24 17:35:00,
2013-09-24 13:45:00,73.0,55.9,30.01,West,281,0.0,0.0,55,0.00,,,0.00,Wunderground v.1.15,2013-09-24 17:45:00,
2013-09-24 13:55:00,73.1,55.5,30.01,NW,319,1.0,1.0,54,0.00,,,0.00,Wunderground v.1.15,2013-09-24 17:55:00,
2013-09-24 14:00:00,72.9,55.8,30.00,NW,314,1.0,4.0,55,0.00,,,0.00,Wunderground v.1.15,2013-09-24 18:00:00,
2013-09-24 14:10:00,72.2,54.6,30.00,West,279,2.0,2.0,54,0.00,,,0.00,Wunderground v.1.15,2013-09-24 18:10:00,
2013-09-24 14:20:00,72.7,56.6,30.00,NW,325,1.0,1.0,57,0.00,,,0.00,Wunderground v.1.15,2013-09-24 18:20:00,
2013-09-24 14:30:00,73.1,56.5,29.99,WNW,300,1.0,1.0,56,0.00,,,0.00,Wunderground v.1.15,2013-09-24 18:30:00,
2013-09-24 14:40:00,73.3,56.2,29.99,NW,317,1.0,4.0,55,0.00,,,0.00,Wunderground v.1.15,2013-09-24 18:40:00,
2013-09-24 14:45:00,73.5,56.8,29.99,NW,307,1.0,4.0,56,0.00,,,0.00,Wunderground v.1.15,2013-09-24 18:45:00,
2013-09-24 14:55:00,74.2,56.5,29.98,NNE,15,1.0,1.0,54,0.00,,,0.00,Wunderground v.1.15,2013-09-24 18:55:00,
2013-09-24 15:05:00,74.1,56.4,29.98,North,350,1.0,1.0,54,0.00,,,0.00,Wunderground v.1.15,2013-09-24 19:05:00,
2013-09-24 15:15:00,73.9,55.2,29.98,WSW,254,0.0,1.0,52,0.00,,,0.00,Wunderground v.1.15,2013-09-24 19:15:00,
2013-09-24 15:25:00,74.9,57.1,29.98,NW,307,0.0,0.0,54,0.00,,,0.00,Wunderground v.1.15,2013-09-24 19:25:00,
2013-09-24 15:35:00,74.5,55.2,29.98,WNW,303,0.0,0.0,51,0.00,,,0.00,Wunderground v.1.15,2013-09-24 19:35:00,
2013-09-24 15:40:00,74.4,56.2,29.98,NW,310,0.0,0.0,53,0.00,,,0.00,Wunderground v.1.15,2013-09-24 19:40:00,
2013-09-24 15:50:00,74.0,54.7,29.97,NW,309,0.0,5.0,51,0.00,,,0.00,Wunderground v.1.15,2013-09-24 19:50:00,
2013-09-24 16:00:00,73.6,54.9,29.97,WNW,293,1.0,1.0,52,0.00,,,0.00,Wunderground v.1.15,2013-09-24 20:00:00,
2013-09-24 16:10:00,73.4,54.7,29.96,WNW,282,0.0,0.0,52,0.00,,,0.00,Wunderground v.1.15,2013-09-24 20:10:00,
2013-09-24 16:20:00,73.8,56.1,29.96,NW,318,0.0,0.0,54,0.00,,,0.00,Wunderground v.1.15,2013-09-24 20:20:00,
2013-09-24 16:25:00,73.9,56.2,29.96,NNE,13,0.0,0.0,54,0.00,,,0.00,Wunderground v.1.15,2013-09-24 20:25:00,
2013-09-24 16:35:00,73.7,55.5,29.96,WNW,296,1.0,1.0,53,0.00,,,0.00,Wunderground v.1.15,2013-09-24 20:35:00,
2013-09-24 16:45:00,73.5,55.8,29.96,NNE,12,0.0,0.0,54,0.00,,,0.00,Wunderground v.1.15,2013-09-24 20:45:00,
2013-09-24 16:55:00,73.2,55.6,29.96,North,5,0.0,0.0,54,0.00,,,0.00,Wunderground v.1.15,2013-09-24 20:55:00,
2013-09-24 17:00:00,73.1,56.0,29.96,North,5,0.0,0.0,55,0.00,,,0.00,Wunderground v.1.15,2013-09-24 21:00:00,
2013-09-24 17:10:00,73.6,55.4,29.96,WNW,292,0.0,0.0,53,0.00,,,0.00,Wunderground v.1.15,2013-09-24 21:10:00,
2013-09-24 17:20:00,73.2,56.1,29.96,North,360,0.0,1.0,55,0.00,,,0.00,Wunderground v.1.15,2013-09-24 21:20:00,
2013-09-24 17:30:00,72.3,54.7,29.95,North,355,0.0,0.0,54,0.00,,,0.00,Wunderground v.1.15,2013-09-24 21:30:00,
2013-09-24 17:35:00,72.2,55.1,29.95,NW,306,0.0,0.0,55,0.00,,,0.00,Wunderground v.1.15,2013-09-24 21:35:00,
2013-09-24 17:45:00,72.2,54.6,29.95,West,276,0.0,0.0,54,0.00,,,0.00,Wunderground v.1.15,2013-09-24 21:45:00,
2013-09-24 17:55:00,71.7,54.7,29.95,NW,307,0.0,0.0,55,0.00,,,0.00,Wunderground v.1.15,2013-09-24 21:55:00,
2013-09-24 18:05:00,71.3,54.8,29.95,NW,306,0.0,0.0,56,0.00,,,0.00,Wunderground v.1.15,2013-09-24 22:05:00,
2013-09-24 18:15:00,71.4,55.4,29.96,West,276,0.0,0.0,57,0.00,,,0.00,Wunderground v.1.15,2013-09-24 22:15:00,
2013-09-24 18:20:00,71.3,54.8,29.96,West,277,0.0,0.0,56,0.00,,,0.00,Wunderground v.1.15,2013-09-24 22:20:00,
2013-09-24 18:30:00,70.6,54.6,29.96,West,277,0.0,0.0,57,0.00,,,0.00,Wunderground v.1.15,2013-09-24 22:30:00,
2013-09-24 18:40:00,69.7,54.7,29.96,WNW,290,0.0,0.0,59,0.00,,,0.00,Wunderground v.1.15,2013-09-24 22:40:00,
2013-09-24 18:50:00,69.0,54.1,29.96,WNW,290,0.0,0.0,59,0.00,,,0.00,Wunderground v.1.15,2013-09-24 22:50:00,
2013-09-24 18:55:00,68.7,54.3,29.96,WNW,292,0.0,0.0,60,0.00,,,0.00,Wunderground v.1.15,2013-09-24 22:55:00,
2013-09-24 19:05:00,68.2,54.2,29.96,WNW,292,0.0,0.0,61,0.00,,,0.00,Wunderground v.1.15,2013-09-24 23:05:00,
2013-09-24 19:15:00,67.3,55.5,29.95,SSE,168,0.0,0.0,66,0.00,,,0.00,Wunderground v.1.15,2013-09-24 23:15:00,
2013-09-24 19:25:00,66.0,55.9,29.96,SSE,165,0.0,0.0,70,0.00,,,0.00,Wunderground v.1.15,2013-09-24 23:25:00,
2013-09-24 19:35:00,65.1,56.2,29.96,SSE,165,0.0,0.0,73,0.00,,,0.00,Wunderground v.1.15,2013-09-24 23:35:00,
2013-09-24 19:40:00,64.8,55.9,29.96,SSE,166,0.0,0.0,73,0.00,,,0.00,Wunderground v.1.15,2013-09-24 23:40:00,
2013-09-24 19:50:00,64.2,56.1,29.96,SSE,166,0.0,0.0,75,0.00,,,0.00,Wunderground v.1.15,2013-09-24 23:50:00,
2013-09-24 20:00:00,63.6,55.9,29.97,SSE,166,0.0,0.0,76,0.00,,,0.00,Wunderground v.1.15,2013-09-25 00:00:00,
2013-09-24 20:10:00,63.1,55.8,29.97,SSE,166,0.0,0.0,77,0.00,,,0.00,Wunderground v.1.15,2013-09-25 00:10:00,
2013-09-24 20:15:00,62.9,55.6,29.97,SSE,166,0.0,0.0,77,0.00,,,0.00,Wunderground v.1.15,2013-09-25 00:15:00,
2013-09-24 20:25:00,62.4,55.8,29.97,SSE,165,0.0,0.0,79,0.00,,,0.00,Wunderground v.1.15,2013-09-25 00:25:00,
2013-09-24 20:30:00,62.1,55.9,29.97,SSE,165,0.0,0.0,80,0.00,,,0.00,Wunderground v.1.15,2013-09-25 00:30:00,
2013-09-24 20:40:00,61.7,55.8,29.98,SSE,165,0.0,0.0,81,0.00,,,0.00,Wunderground v.1.15,2013-09-25 00:40:00,
2013-09-24 20:50:00,61.5,55.6,29.98,SSE,166,0.0,0.0,81,0.00,,,0.00,Wunderground v.1.15,2013-09-25 00:50:00,
2013-09-24 21:00:00,61.4,55.5,29.98,SSE,166,0.0,0.0,81,0.00,,,0.00,Wunderground v.1.15,2013-09-25 01:00:00,
2013-09-24 21:05:00,61.3,55.4,29.98,SSE,167,0.0,0.0,81,0.00,,,0.00,Wunderground v.1.15,2013-09-25 01:05:00,
2013-09-24 21:15:00,61.2,55.3,29.98,SSE,166,0.0,0.0,81,0.00,,,0.00,Wunderground v.1.15,2013-09-25 01:15:00,
2013-09-24 21:25:00,60.9,55.4,29.98,South,188,0.0,0.0,82,0.00,,,0.00,Wunderground v.1.15,2013-09-25 01:25:00,
2013-09-24 21:35:00,60.6,55.1,29.97,South,188,0.0,0.0,82,0.00,,,0.00,Wunderground v.1.15,2013-09-25 01:35:00,
2013-09-24 21:45:00,60.4,54.9,29.97,South,188,0.0,0.0,82,0.00,,,0.00,Wunderground v.1.15,2013-09-25 01:45:00,
2013-09-24 21:50:00,60.2,55.0,29.97,South,188,0.0,0.0,83,0.00,,,0.00,Wunderground v.1.15,2013-09-25 01:50:00,
2013-09-24 22:00:00,59.9,54.7,29.98,South,188,0.0,0.0,83,0.00,,,0.00,Wunderground v.1.15,2013-09-25 02:00:00,
2013-09-24 22:10:00,59.5,54.3,29.98,South,188,0.0,0.0,83,0.00,,,0.00,Wunderground v.1.15,2013-09-25 02:10:00,
2013-09-24 22:20:00,59.0,54.2,29.97,South,188,0.0,0.0,84,0.00,,,0.00,Wunderground v.1.15,2013-09-25 02:20:00,
2013-09-24 22:30:00,58.5,54.0,29.97,South,188,0.0,0.0,85,0.00,,,0.00,Wunderground v.1.15,2013-09-25 02:30:00,
2013-09-24 22:40:00,58.0,53.8,29.97,South,188,0.0,0.0,86,0.00,,,0.00,Wunderground v.1.15,2013-09-25 02:40:00,
2013-09-24 22:50:00,57.7,53.9,29.97,South,188,0.0,0.0,87,0.00,,,0.00,Wunderground v.1.15,2013-09-25 02:50:00,
2013-09-24 22:55:00,57.4,53.6,29.97,South,188,0.0,0.0,87,0.00,,,0.00,Wunderground v.1.15,2013-09-25 02:55:00,
2013-09-24 23:05:00,57.0,53.5,29.97,South,188,0.0,0.0,88,0.00,,,0.00,Wunderground v.1.15,2013-09-25 03:05:00,
2013-09-24 23:15:00,56.7,53.2,29.97,South,188,0.0,0.0,88,0.00,,,0.00,Wunderground v.1.15,2013-09-25 03:15:00,
2013-09-24 23:25:00,56.4,53.2,29.97,South,188,0.0,0.0,89,0.00,,,0.00,Wunderground v.1.15,2013-09-25 03:25:00,
2013-09-24 23:35:00,56.0,52.8,29.96,South,188,0.0,0.0,89,0.00,,,0.00,Wunderground v.1.15,2013-09-25 03:35:00,
2013-09-24 23:45:00,55.6,52.7,29.97,South,188,0.0,0.0,90,0.00,,,0.00,Wunderground v.1.15,2013-09-25 03:45:00,
2013-09-24 23:50:00,55.6,52.7,29.96,South,188,0.0,0.0,90,0.00,,,0.00,Wunderground v.1.15,2013-09-25 03:50:00,